createdAt,value
2016-08-27T00:00:23.378Z,0
2016-08-27T00:01:23.393Z,0
2016-08-27T00:02:22.713Z,0
2016-08-27T00:03:23.441Z,0
2016-08-27T00:04:23.614Z,0
2016-08-27T00:05:23.464Z,0
2016-08-27T00:06:23.532Z,0
2016-08-27T00:07:23.522Z,0
2016-08-27T00:08:23.615Z,0
2016-08-27T00:09:22.931Z,0
2016-08-27T00:10:23.595Z,0
2016-08-27T00:11:23.593Z,0
2016-08-27T00:12:22.229Z,0
2016-08-27T00:13:22.979Z,0
2016-08-27T00:14:23.677Z,0
2016-08-27T00:15:22.295Z,0
2016-08-27T00:16:23.725Z,0
2016-08-27T00:17:23.742Z,0
2016-08-27T00:18:23.776Z,0
2016-08-27T00:19:23.803Z,0
2016-08-27T00:20:22.432Z,0
2016-08-27T00:21:22.433Z,0
2016-08-27T00:22:22.524Z,0
2016-08-27T00:23:23.913Z,0
2016-08-27T00:24:24.655Z,0
2016-08-27T00:25:23.240Z,0
2016-08-27T00:26:24.046Z,0
2016-08-27T00:27:21.962Z,0
2016-08-27T00:28:24.714Z,0
2016-08-27T00:29:24.082Z,0
2016-08-27T00:30:22.629Z,0
2016-08-27T00:31:24.803Z,0
2016-08-27T00:32:24.105Z,0
2016-08-27T00:33:23.424Z,0
2016-08-27T00:34:24.143Z,0
2016-08-27T00:35:24.190Z,0
2016-08-27T00:36:22.863Z,0
2016-08-27T00:37:22.825Z,0
2016-08-27T00:38:23.507Z,0
2016-08-27T00:39:23.702Z,0
2016-08-27T00:40:23.605Z,0
2016-08-27T00:41:23.612Z,0
2016-08-27T00:42:23.717Z,0
2016-08-27T00:43:23.646Z,0
2016-08-27T00:44:23.679Z,0
2016-08-27T00:45:23.706Z,0
2016-08-27T00:46:24.402Z,0
2016-08-27T00:47:23.035Z,0
2016-08-27T00:48:23.134Z,0
2016-08-27T00:49:23.784Z,0
2016-08-27T00:50:23.165Z,0
2016-08-27T00:51:23.832Z,0
2016-08-27T00:52:23.866Z,0
2016-08-27T00:53:23.893Z,0
2016-08-27T00:54:23.203Z,0
2016-08-27T00:55:25.321Z,0
2016-08-27T00:56:23.255Z,0
2016-08-27T00:57:23.283Z,0
2016-08-27T00:58:24.695Z,0
2016-08-27T00:59:24.724Z,0
2016-08-27T01:00:24.828Z,0
2016-08-27T01:01:25.475Z,0
2016-08-27T01:02:25.493Z,0
2016-08-27T01:03:25.647Z,0
2016-08-27T01:04:24.853Z,0
2016-08-27T01:05:24.218Z,0
2016-08-27T01:06:25.582Z,0
2016-08-27T01:07:24.305Z,0
2016-08-27T01:08:24.385Z,0
2016-08-27T01:09:24.952Z,0
2016-08-27T01:10:25.053Z,0
2016-08-27T01:11:25.838Z,0
2016-08-27T01:12:25.034Z,0
2016-08-27T01:13:25.034Z,0
2016-08-27T01:14:25.785Z,0
2016-08-27T01:15:25.080Z,0
2016-08-27T01:16:24.409Z,0
2016-08-27T01:17:25.104Z,0
2016-08-27T01:18:25.240Z,0
2016-08-27T01:19:25.183Z,0
2016-08-27T01:20:25.212Z,0
2016-08-27T01:21:25.211Z,0
2016-08-27T01:22:24.543Z,0
2016-08-27T01:23:24.556Z,0
2016-08-27T01:24:25.298Z,0
2016-08-27T01:25:24.611Z,0
2016-08-27T01:26:25.326Z,0
2016-08-27T01:27:25.372Z,0
2016-08-27T01:28:24.693Z,0
2016-08-27T01:29:26.195Z,0
2016-08-27T01:30:24.024Z,0
2016-08-27T01:31:23.345Z,0
2016-08-27T01:32:26.168Z,0
2016-08-27T01:33:25.484Z,0
2016-08-27T01:34:25.526Z,0
2016-08-27T01:35:26.294Z,0
2016-08-27T01:36:26.275Z,0
2016-08-27T01:37:24.185Z,0
2016-08-27T01:38:25.617Z,0
2016-08-27T01:39:25.622Z,0
2016-08-27T01:40:26.398Z,0
2016-08-27T01:41:24.974Z,0
2016-08-27T01:42:25.702Z,0
2016-08-27T01:43:26.424Z,0
2016-08-27T01:44:25.771Z,0
2016-08-27T01:45:25.763Z,0
2016-08-27T01:46:25.079Z,0
2016-08-27T01:47:25.205Z,0
2016-08-27T01:48:25.122Z,0
2016-08-27T01:49:25.145Z,0
2016-08-27T01:50:26.585Z,0
2016-08-27T01:51:25.206Z,0
2016-08-27T01:52:24.515Z,0
2016-08-27T01:53:24.515Z,0
2016-08-27T01:54:25.256Z,0
2016-08-27T01:55:26.005Z,0
2016-08-27T01:56:26.036Z,0
2016-08-27T01:57:25.324Z,0
2016-08-27T01:58:24.713Z,0
2016-08-27T01:59:26.794Z,0
2016-08-27T02:00:24.704Z,0
2016-08-27T02:01:25.406Z,0
2016-08-27T02:02:25.444Z,0
2016-08-27T02:03:25.474Z,0
2016-08-27T02:04:25.486Z,0
2016-08-27T02:05:26.924Z,0
2016-08-27T02:06:27.022Z,0
2016-08-27T02:07:26.251Z,0
2016-08-27T02:08:27.006Z,0
2016-08-27T02:09:25.633Z,0
2016-08-27T02:10:25.640Z,0
2016-08-27T02:11:26.485Z,0
2016-08-27T02:12:26.390Z,0
2016-08-27T02:13:25.763Z,0
2016-08-27T02:14:27.135Z,0
2016-08-27T02:15:25.730Z,0
2016-08-27T02:16:25.803Z,0
2016-08-27T02:17:26.503Z,0
2016-08-27T02:18:25.093Z,0
2016-08-27T02:19:25.818Z,0
2016-08-27T02:20:25.864Z,0
2016-08-27T02:21:25.861Z,0
2016-08-27T02:22:25.882Z,0
2016-08-27T02:23:25.225Z,0
2016-08-27T02:24:25.945Z,0
2016-08-27T02:25:26.665Z,0
2016-08-27T02:26:25.983Z,0
2016-08-27T02:27:26.721Z,0
2016-08-27T02:28:26.133Z,0
2016-08-27T02:29:26.785Z,0
2016-08-27T02:30:26.064Z,0
2016-08-27T02:31:26.795Z,0
2016-08-27T02:32:26.833Z,0
2016-08-27T02:33:26.256Z,0
2016-08-27T02:34:26.870Z,0
2016-08-27T02:35:26.245Z,0
2016-08-27T02:36:25.492Z,0
2016-08-27T02:37:25.523Z,0
2016-08-27T02:38:26.975Z,0
2016-08-27T02:39:27.012Z,0
2016-08-27T02:40:26.996Z,0
2016-08-27T02:41:27.023Z,0
2016-08-27T02:42:27.036Z,0
2016-08-27T02:43:26.454Z,0
2016-08-27T02:44:27.100Z,0
2016-08-27T02:45:27.136Z,0
2016-08-27T02:46:25.732Z,0
2016-08-27T02:47:27.191Z,0
2016-08-27T02:48:25.759Z,0
2016-08-27T02:49:27.928Z,0
2016-08-27T02:50:27.302Z,0
2016-08-27T02:51:25.134Z,0
2016-08-27T02:52:27.285Z,0
2016-08-27T02:53:26.603Z,0
2016-08-27T02:54:26.623Z,0
2016-08-27T02:55:25.234Z,0
2016-08-27T02:56:26.675Z,0
2016-08-27T02:57:28.122Z,0
2016-08-27T02:58:27.403Z,0
2016-08-27T02:59:28.291Z,0
2016-08-27T03:00:27.482Z,0
2016-08-27T03:01:28.194Z,0
2016-08-27T03:02:26.824Z,0
2016-08-27T03:03:28.350Z,0
2016-08-27T03:04:27.571Z,0
2016-08-27T03:05:28.337Z,0
2016-08-27T03:06:27.587Z,0
2016-08-27T03:07:27.627Z,0
2016-08-27T03:08:27.653Z,0
2016-08-27T03:09:25.541Z,0
2016-08-27T03:10:27.090Z,0
2016-08-27T03:11:27.014Z,0
2016-08-27T03:12:27.133Z,0
2016-08-27T03:13:28.454Z,0
2016-08-27T03:14:27.791Z,0
2016-08-27T03:15:27.119Z,0
2016-08-27T03:16:27.904Z,0
2016-08-27T03:17:27.136Z,0
2016-08-27T03:18:27.149Z,0
2016-08-27T03:19:27.252Z,0
2016-08-27T03:20:27.928Z,0
2016-08-27T03:21:27.951Z,0
2016-08-27T03:22:25.972Z,0
2016-08-27T03:23:27.282Z,0
2016-08-27T03:24:27.312Z,0
2016-08-27T03:25:28.082Z,0
2016-08-27T03:26:28.062Z,0
2016-08-27T03:27:26.072Z,0
2016-08-27T03:28:26.683Z,0
2016-08-27T03:29:28.104Z,0
2016-08-27T03:30:27.513Z,0
2016-08-27T03:31:28.162Z,0
2016-08-27T03:32:28.994Z,0
2016-08-27T03:33:27.496Z,0
2016-08-27T03:34:27.582Z,0
2016-08-27T03:35:26.952Z,0
2016-08-27T03:36:28.356Z,0
2016-08-27T03:37:26.896Z,0
2016-08-27T03:38:28.397Z,0
2016-08-27T03:39:28.324Z,0
2016-08-27T03:40:27.653Z,0
2016-08-27T03:41:28.572Z,0
2016-08-27T03:42:28.390Z,0
2016-08-27T03:43:27.164Z,0
2016-08-27T03:44:29.163Z,0
2016-08-27T03:45:27.852Z,0
2016-08-27T03:46:28.514Z,0
2016-08-27T03:47:28.520Z,0
2016-08-27T03:48:27.844Z,0
2016-08-27T03:49:28.654Z,0
2016-08-27T03:50:28.672Z,0
2016-08-27T03:51:27.923Z,0
2016-08-27T03:52:28.124Z,0
2016-08-27T03:53:28.665Z,0
2016-08-27T03:54:27.293Z,0
2016-08-27T03:55:28.083Z,0
2016-08-27T03:56:27.502Z,0
2016-08-27T03:57:28.051Z,0
2016-08-27T03:58:28.068Z,0
2016-08-27T03:59:28.802Z,0
2016-08-27T04:00:28.115Z,0
2016-08-27T04:01:28.193Z,0
2016-08-27T04:02:28.869Z,0
2016-08-27T04:03:28.197Z,0
2016-08-27T04:04:28.903Z,0
2016-08-27T04:05:27.574Z,0
2016-08-27T04:06:27.559Z,0
2016-08-27T04:07:28.369Z,0
2016-08-27T04:08:29.005Z,0
2016-08-27T04:09:28.427Z,0
2016-08-27T04:10:29.144Z,0
2016-08-27T04:11:29.134Z,0
2016-08-27T04:12:28.400Z,0
2016-08-27T04:13:28.423Z,0
2016-08-27T04:14:29.146Z,0
2016-08-27T04:15:29.171Z,0
2016-08-27T04:16:27.796Z,0
2016-08-27T04:17:28.488Z,0
2016-08-27T04:18:27.816Z,0
2016-08-27T04:19:28.554Z,0
2016-08-27T04:20:28.550Z,5
2016-08-27T04:21:29.296Z,5
2016-08-27T04:22:28.635Z,5
2016-08-27T04:23:30.043Z,5
2016-08-27T04:24:28.684Z,5
2016-08-27T04:25:29.400Z,5
2016-08-27T04:26:28.714Z,5
2016-08-27T04:27:29.442Z,5
2016-08-27T04:28:28.740Z,5
2016-08-27T04:29:28.123Z,5
2016-08-27T04:30:28.103Z,10
2016-08-27T04:31:29.584Z,10
2016-08-27T04:32:28.854Z,10
2016-08-27T04:33:28.863Z,10
2016-08-27T04:34:29.615Z,10
2016-08-27T04:35:28.910Z,10
2016-08-27T04:36:28.995Z,10
2016-08-27T04:37:28.254Z,15
2016-08-27T04:38:30.375Z,15
2016-08-27T04:39:29.155Z,15
2016-08-27T04:40:29.047Z,15
2016-08-27T04:41:28.347Z,20
2016-08-27T04:42:30.013Z,20
2016-08-27T04:43:29.965Z,20
2016-08-27T04:44:30.134Z,20
2016-08-27T04:45:29.954Z,20
2016-08-27T04:46:29.362Z,25
2016-08-27T04:47:28.470Z,25
2016-08-27T04:48:30.133Z,25
2016-08-27T04:49:29.259Z,25
2016-08-27T04:50:29.267Z,30
2016-08-27T04:51:29.965Z,30
2016-08-27T04:52:30.116Z,35
2016-08-27T04:53:30.031Z,35
2016-08-27T04:54:30.063Z,35
2016-08-27T04:55:29.380Z,40
2016-08-27T04:56:29.387Z,40
2016-08-27T04:57:29.421Z,40
2016-08-27T04:58:31.054Z,40
2016-08-27T04:59:29.515Z,45
2016-08-27T05:00:28.810Z,45
2016-08-27T05:01:29.710Z,50
2016-08-27T05:02:30.955Z,50
2016-08-27T05:03:30.972Z,55
2016-08-27T05:04:30.325Z,55
2016-08-27T05:05:29.581Z,60
2016-08-27T05:06:28.925Z,60
2016-08-27T05:07:29.654Z,65
2016-08-27T05:08:31.144Z,65
2016-08-27T05:09:30.453Z,70
2016-08-27T05:10:30.466Z,75
2016-08-27T05:11:30.448Z,80
2016-08-27T05:12:29.055Z,85
2016-08-27T05:13:31.196Z,90
2016-08-27T05:14:30.533Z,95
2016-08-27T05:15:29.145Z,95
2016-08-27T05:16:31.268Z,100
2016-08-27T05:17:30.708Z,105
2016-08-27T05:18:30.610Z,105
2016-08-27T05:19:30.627Z,105
2016-08-27T05:20:30.701Z,110
2016-08-27T05:21:30.075Z,110
2016-08-27T05:22:31.077Z,110
2016-08-27T05:23:29.464Z,110
2016-08-27T05:24:31.132Z,110
2016-08-27T05:25:29.526Z,115
2016-08-27T05:26:30.794Z,120
2016-08-27T05:27:31.573Z,125
2016-08-27T05:28:30.376Z,130
2016-08-27T05:29:29.675Z,130
2016-08-27T05:30:29.623Z,135
2016-08-27T05:31:31.625Z,140
2016-08-27T05:32:30.319Z,140
2016-08-27T05:33:30.265Z,140
2016-08-27T05:34:30.344Z,140
2016-08-27T05:35:30.405Z,140
2016-08-27T05:36:31.852Z,145
2016-08-27T05:37:29.664Z,150
2016-08-27T05:38:31.090Z,150
2016-08-27T05:39:30.404Z,155
2016-08-27T05:40:29.735Z,160
2016-08-27T05:41:30.501Z,165
2016-08-27T05:42:31.265Z,180
2016-08-27T05:43:31.353Z,180
2016-08-27T05:44:30.533Z,190
2016-08-27T05:45:30.539Z,200
2016-08-27T05:46:30.574Z,210
2016-08-27T05:47:30.593Z,215
2016-08-27T05:48:29.283Z,220
2016-08-27T05:49:31.353Z,225
2016-08-27T05:50:30.066Z,230
2016-08-27T05:51:31.380Z,235
2016-08-27T05:52:30.734Z,225
2016-08-27T05:53:31.445Z,230
2016-08-27T05:54:30.144Z,240
2016-08-27T05:55:30.805Z,275
2016-08-27T05:56:30.806Z,230
2016-08-27T05:57:31.542Z,230
2016-08-27T05:58:30.934Z,265
2016-08-27T05:59:31.698Z,255
2016-08-27T06:00:30.904Z,260
2016-08-27T06:01:31.683Z,250
2016-08-27T06:02:30.954Z,250
2016-08-27T06:03:32.543Z,260
2016-08-27T06:04:32.584Z,275
2016-08-27T06:05:30.372Z,275
2016-08-27T06:06:31.069Z,340
2016-08-27T06:07:31.810Z,285
2016-08-27T06:08:30.444Z,385
2016-08-27T06:09:31.923Z,385
2016-08-27T06:10:30.455Z,330
2016-08-27T06:11:31.187Z,370
2016-08-27T06:12:32.625Z,445
2016-08-27T06:13:31.234Z,490
2016-08-27T06:14:32.043Z,480
2016-08-27T06:15:32.005Z,395
2016-08-27T06:16:31.475Z,420
2016-08-27T06:17:31.346Z,550
2016-08-27T06:18:31.364Z,410
2016-08-27T06:19:32.102Z,475
2016-08-27T06:20:32.215Z,495
2016-08-27T06:21:31.459Z,495
2016-08-27T06:22:32.156Z,420
2016-08-27T06:23:31.574Z,395
2016-08-27T06:24:31.542Z,395
2016-08-27T06:25:31.575Z,490
2016-08-27T06:26:32.974Z,420
2016-08-27T06:27:31.103Z,595
2016-08-27T06:28:30.925Z,670
2016-08-27T06:29:31.643Z,610
2016-08-27T06:30:32.425Z,690
2016-08-27T06:31:33.178Z,660
2016-08-27T06:32:32.447Z,665
2016-08-27T06:33:33.256Z,720
2016-08-27T06:34:31.895Z,765
2016-08-27T06:35:31.843Z,740
2016-08-27T06:36:30.515Z,750
2016-08-27T06:37:33.302Z,770
2016-08-27T06:38:32.773Z,685
2016-08-27T06:39:33.353Z,690
2016-08-27T06:40:32.856Z,595
2016-08-27T06:41:32.798Z,560
2016-08-27T06:42:32.817Z,665
2016-08-27T06:43:32.118Z,670
2016-08-27T06:44:32.059Z,510
2016-08-27T06:45:32.867Z,565
2016-08-27T06:46:31.423Z,600
2016-08-27T06:47:32.974Z,530
2016-08-27T06:48:32.358Z,670
2016-08-27T06:49:32.193Z,715
2016-08-27T06:50:32.225Z,855
2016-08-27T06:51:32.973Z,745
2016-08-27T06:52:33.702Z,525
2016-08-27T06:53:32.387Z,610
2016-08-27T06:54:31.656Z,820
2016-08-27T06:55:32.371Z,735
2016-08-27T06:56:33.163Z,775
2016-08-27T06:57:32.437Z,620
2016-08-27T06:58:33.206Z,695
2016-08-27T06:59:33.192Z,755
2016-08-27T07:00:32.589Z,615
2016-08-27T07:01:32.531Z,630
2016-08-27T07:02:33.442Z,705
2016-08-27T07:03:33.278Z,555
2016-08-27T07:04:31.202Z,495
2016-08-27T07:05:33.346Z,495
2016-08-27T07:06:32.171Z,645
2016-08-27T07:07:33.775Z,490
2016-08-27T07:08:34.284Z,630
2016-08-27T07:09:33.683Z,665
2016-08-27T07:10:34.323Z,810
2016-08-27T07:11:32.965Z,530
2016-08-27T07:12:33.624Z,535
2016-08-27T07:13:32.333Z,765
2016-08-27T07:14:34.324Z,790
2016-08-27T07:15:34.356Z,685
2016-08-27T07:16:34.580Z,650
2016-08-27T07:17:33.736Z,905
2016-08-27T07:18:32.297Z,925
2016-08-27T07:19:33.044Z,600
2016-08-27T07:20:32.456Z,600
2016-08-27T07:21:32.444Z,550
2016-08-27T07:22:33.886Z,795
2016-08-27T07:23:33.174Z,540
2016-08-27T07:24:33.895Z,910
2016-08-27T07:25:33.969Z,810
2016-08-27T07:26:33.231Z,815
2016-08-27T07:27:34.109Z,635
2016-08-27T07:28:34.022Z,565
2016-08-27T07:29:34.113Z,820
2016-08-27T07:30:33.348Z,605
2016-08-27T07:31:33.354Z,575
2016-08-27T07:32:33.396Z,535
2016-08-27T07:33:34.166Z,525
2016-08-27T07:34:34.875Z,655
2016-08-27T07:35:33.485Z,545
2016-08-27T07:36:34.925Z,550
2016-08-27T07:37:34.264Z,550
2016-08-27T07:38:34.296Z,625
2016-08-27T07:39:35.006Z,545
2016-08-27T07:40:33.650Z,710
2016-08-27T07:41:34.354Z,515
2016-08-27T07:42:33.682Z,520
2016-08-27T07:43:34.414Z,790
2016-08-27T07:44:33.089Z,825
2016-08-27T07:45:33.117Z,650
2016-08-27T07:46:33.103Z,710
2016-08-27T07:47:33.940Z,685
2016-08-27T07:48:34.556Z,540
2016-08-27T07:49:33.205Z,575
2016-08-27T07:50:33.918Z,800
2016-08-27T07:51:33.926Z,590
2016-08-27T07:52:33.953Z,555
2016-08-27T07:53:34.718Z,550
2016-08-27T07:54:34.724Z,515
2016-08-27T07:55:33.344Z,485
2016-08-27T07:56:35.489Z,465
2016-08-27T07:57:34.783Z,455
2016-08-27T07:58:34.957Z,450
2016-08-27T07:59:34.882Z,455
2016-08-27T08:00:34.948Z,475
2016-08-27T08:01:34.914Z,515
2016-08-27T08:02:34.936Z,525
2016-08-27T08:03:34.977Z,510
2016-08-27T08:04:35.720Z,485
2016-08-27T08:05:35.025Z,470
2016-08-27T08:06:33.646Z,450
2016-08-27T08:07:35.171Z,450
2016-08-27T08:08:35.103Z,470
2016-08-27T08:09:35.207Z,480
2016-08-27T08:10:35.166Z,475
2016-08-27T08:11:34.532Z,470
2016-08-27T08:12:35.224Z,470
2016-08-27T08:13:35.259Z,450
2016-08-27T08:14:34.559Z,435
2016-08-27T08:15:35.439Z,430
2016-08-27T08:16:35.429Z,425
2016-08-27T08:17:35.413Z,430
2016-08-27T08:18:35.473Z,430
2016-08-27T08:19:34.704Z,430
2016-08-27T08:20:36.265Z,430
2016-08-27T08:21:35.453Z,440
2016-08-27T08:22:34.782Z,425
2016-08-27T08:23:34.874Z,420
2016-08-27T08:24:34.905Z,420
2016-08-27T08:25:34.864Z,410
2016-08-27T08:26:36.316Z,415
2016-08-27T08:27:34.921Z,420
2016-08-27T08:28:35.654Z,420
2016-08-27T08:29:35.674Z,430
2016-08-27T08:30:36.417Z,445
2016-08-27T08:31:35.103Z,465
2016-08-27T08:32:34.464Z,465
2016-08-27T08:33:36.501Z,475
2016-08-27T08:34:35.824Z,495
2016-08-27T08:35:36.633Z,505
2016-08-27T08:36:35.194Z,510
2016-08-27T08:37:35.965Z,515
2016-08-27T08:38:34.596Z,530
2016-08-27T08:39:35.588Z,525
2016-08-27T08:40:36.125Z,530
2016-08-27T08:41:36.003Z,540
2016-08-27T08:42:36.941Z,545
2016-08-27T08:43:35.334Z,560
2016-08-27T08:44:35.599Z,565
2016-08-27T08:45:36.322Z,570
2016-08-27T08:46:36.886Z,580
2016-08-27T08:47:35.646Z,580
2016-08-27T08:48:36.337Z,580
2016-08-27T08:49:35.600Z,580
2016-08-27T08:50:36.964Z,565
2016-08-27T08:51:35.562Z,555
2016-08-27T08:52:35.584Z,555
2016-08-27T08:53:35.632Z,550
2016-08-27T08:54:36.345Z,550
2016-08-27T08:55:35.812Z,540
2016-08-27T08:56:36.426Z,540
2016-08-27T08:57:36.452Z,525
2016-08-27T08:58:35.815Z,530
2016-08-27T08:59:35.795Z,510
2016-08-27T09:00:35.898Z,500
2016-08-27T09:01:35.825Z,495
2016-08-27T09:02:37.304Z,485
2016-08-27T09:03:35.198Z,475
2016-08-27T09:04:36.697Z,455
2016-08-27T09:05:35.964Z,455
2016-08-27T09:06:36.045Z,450
2016-08-27T09:07:35.989Z,450
2016-08-27T09:08:36.036Z,450
2016-08-27T09:09:36.127Z,460
2016-08-27T09:10:35.376Z,485
2016-08-27T09:11:36.981Z,480
2016-08-27T09:12:37.556Z,480
2016-08-27T09:13:37.825Z,475
2016-08-27T09:14:36.919Z,465
2016-08-27T09:15:37.715Z,455
2016-08-27T09:16:37.654Z,450
2016-08-27T09:17:36.977Z,455
2016-08-27T09:18:37.719Z,450
2016-08-27T09:19:37.750Z,460
2016-08-27T09:20:36.464Z,455
2016-08-27T09:21:36.515Z,455
2016-08-27T09:22:36.582Z,455
2016-08-27T09:23:37.853Z,455
2016-08-27T09:24:35.869Z,465
2016-08-27T09:25:37.217Z,460
2016-08-27T09:26:36.537Z,455
2016-08-27T09:27:36.544Z,460
2016-08-27T09:28:37.286Z,445
2016-08-27T09:29:36.814Z,440
2016-08-27T09:30:35.926Z,435
2016-08-27T09:31:37.397Z,440
2016-08-27T09:32:37.776Z,440
2016-08-27T09:33:37.463Z,435
2016-08-27T09:34:36.748Z,430
2016-08-27T09:35:38.274Z,425
2016-08-27T09:36:38.227Z,425
2016-08-27T09:37:37.620Z,425
2016-08-27T09:38:37.579Z,425
2016-08-27T09:39:38.382Z,425
2016-08-27T09:40:38.311Z,430
2016-08-27T09:41:37.635Z,440
2016-08-27T09:42:38.349Z,455
2016-08-27T09:43:38.440Z,470
2016-08-27T09:44:37.709Z,480
2016-08-27T09:45:36.427Z,485
2016-08-27T09:46:37.125Z,500
2016-08-27T09:47:37.791Z,510
2016-08-27T09:48:37.817Z,520
2016-08-27T09:49:38.559Z,535
2016-08-27T09:50:37.882Z,540
2016-08-27T09:51:37.881Z,535
2016-08-27T09:52:38.684Z,520
2016-08-27T09:53:37.946Z,495
2016-08-27T09:54:38.666Z,470
2016-08-27T09:55:38.015Z,450
2016-08-27T09:56:38.754Z,460
2016-08-27T09:57:36.757Z,460
2016-08-27T09:58:38.783Z,475
2016-08-27T09:59:38.925Z,490
2016-08-27T10:00:37.466Z,500
2016-08-27T10:01:38.894Z,505
2016-08-27T10:02:39.115Z,505
2016-08-27T10:03:37.515Z,510
2016-08-27T10:04:38.966Z,525
2016-08-27T10:05:37.586Z,525
2016-08-27T10:06:38.537Z,520
2016-08-27T10:07:38.353Z,510
2016-08-27T10:08:38.364Z,495
2016-08-27T10:09:37.787Z,490
2016-08-27T10:10:39.194Z,475
2016-08-27T10:11:37.122Z,465
2016-08-27T10:12:38.490Z,465
2016-08-27T10:13:37.775Z,480
2016-08-27T10:14:38.532Z,465
2016-08-27T10:15:37.863Z,455
2016-08-27T10:16:38.591Z,450
2016-08-27T10:17:37.196Z,440
2016-08-27T10:18:38.646Z,415
2016-08-27T10:19:38.685Z,410
2016-08-27T10:20:37.992Z,410
2016-08-27T10:21:38.776Z,400
2016-08-27T10:22:38.147Z,400
2016-08-27T10:23:38.057Z,395
2016-08-27T10:24:38.166Z,385
2016-08-27T10:25:38.838Z,380
2016-08-27T10:26:38.928Z,375
2016-08-27T10:27:38.865Z,370
2016-08-27T10:28:38.194Z,370
2016-08-27T10:29:38.328Z,360
2016-08-27T10:30:38.263Z,360
2016-08-27T10:31:39.864Z,360
2016-08-27T10:32:37.620Z,360
2016-08-27T10:33:38.412Z,360
2016-08-27T10:34:38.367Z,355
2016-08-27T10:35:39.212Z,360
2016-08-27T10:36:39.945Z,360
2016-08-27T10:37:37.763Z,360
2016-08-27T10:38:39.952Z,355
2016-08-27T10:39:38.555Z,350
2016-08-27T10:40:39.249Z,345
2016-08-27T10:41:38.551Z,340
2016-08-27T10:42:37.896Z,335
2016-08-27T10:43:38.604Z,335
2016-08-27T10:44:40.045Z,335
2016-08-27T10:45:39.554Z,330
2016-08-27T10:46:37.989Z,330
2016-08-27T10:47:38.725Z,330
2016-08-27T10:48:38.824Z,330
2016-08-27T10:49:39.526Z,330
2016-08-27T10:50:39.594Z,330
2016-08-27T10:51:38.880Z,330
2016-08-27T10:52:38.841Z,330
2016-08-27T10:53:38.923Z,330
2016-08-27T10:54:38.905Z,330
2016-08-27T10:55:38.937Z,335
2016-08-27T10:56:39.677Z,330
2016-08-27T10:57:40.412Z,330
2016-08-27T10:58:40.443Z,330
2016-08-27T10:59:39.091Z,330
2016-08-27T11:00:39.071Z,330
2016-08-27T11:01:39.102Z,330
2016-08-27T11:02:38.507Z,325
2016-08-27T11:03:40.659Z,325
2016-08-27T11:04:40.604Z,325
2016-08-27T11:05:39.349Z,325
2016-08-27T11:06:39.532Z,325
2016-08-27T11:07:39.966Z,325
2016-08-27T11:08:40.815Z,325
2016-08-27T11:09:39.376Z,325
2016-08-27T11:10:39.550Z,325
2016-08-27T11:11:40.799Z,320
2016-08-27T11:12:40.115Z,315
2016-08-27T11:13:40.863Z,310
2016-08-27T11:14:40.148Z,315
2016-08-27T11:15:40.280Z,305
2016-08-27T11:16:40.221Z,305
2016-08-27T11:17:38.820Z,300
2016-08-27T11:18:40.264Z,300
2016-08-27T11:19:39.027Z,300
2016-08-27T11:20:39.604Z,300
2016-08-27T11:21:40.406Z,295
2016-08-27T11:22:40.385Z,295
2016-08-27T11:23:40.441Z,295
2016-08-27T11:24:41.148Z,290
2016-08-27T11:25:39.764Z,290
2016-08-27T11:26:39.773Z,290
2016-08-27T11:27:41.203Z,290
2016-08-27T11:28:40.534Z,285
2016-08-27T11:29:40.593Z,290
2016-08-27T11:30:40.637Z,290
2016-08-27T11:31:41.295Z,290
2016-08-27T11:32:40.017Z,290
2016-08-27T11:33:40.675Z,290
2016-08-27T11:34:40.697Z,290
2016-08-27T11:35:40.280Z,290
2016-08-27T11:36:40.764Z,290
2016-08-27T11:37:40.774Z,290
2016-08-27T11:38:41.546Z,285
2016-08-27T11:39:40.855Z,285
2016-08-27T11:40:40.865Z,285
2016-08-27T11:41:41.744Z,285
2016-08-27T11:42:39.506Z,285
2016-08-27T11:43:40.956Z,285
2016-08-27T11:44:40.257Z,285
2016-08-27T11:45:40.271Z,280
2016-08-27T11:46:41.032Z,280
2016-08-27T11:47:41.055Z,280
2016-08-27T11:48:39.864Z,285
2016-08-27T11:49:41.093Z,285
2016-08-27T11:50:40.478Z,285
2016-08-27T11:51:41.884Z,285
2016-08-27T11:52:41.933Z,285
2016-08-27T11:53:41.242Z,280
2016-08-27T11:54:41.238Z,280
2016-08-27T11:55:41.276Z,280
2016-08-27T11:56:41.290Z,280
2016-08-27T11:57:39.914Z,280
2016-08-27T11:58:40.663Z,280
2016-08-27T11:59:39.255Z,280
2016-08-27T12:00:40.768Z,280
2016-08-27T12:01:40.030Z,280
2016-08-27T12:02:41.449Z,275
2016-08-27T12:03:40.797Z,275
2016-08-27T12:04:41.504Z,275
2016-08-27T12:05:42.275Z,275
2016-08-27T12:06:42.254Z,275
2016-08-27T12:07:42.311Z,270
2016-08-27T12:08:40.218Z,270
2016-08-27T12:09:41.775Z,270
2016-08-27T12:10:42.352Z,270
2016-08-27T12:11:40.989Z,270
2016-08-27T12:12:42.441Z,270
2016-08-27T12:13:41.764Z,270
2016-08-27T12:14:42.504Z,270
2016-08-27T12:15:42.515Z,270
2016-08-27T12:16:41.837Z,270
2016-08-27T12:17:41.887Z,270
2016-08-27T12:18:41.185Z,270
2016-08-27T12:19:41.221Z,270
2016-08-27T12:20:41.982Z,270
2016-08-27T12:21:42.006Z,265
2016-08-27T12:22:42.714Z,265
2016-08-27T12:23:42.097Z,265
2016-08-27T12:24:42.047Z,265
2016-08-27T12:25:42.100Z,220
2016-08-27T12:26:42.126Z,255
2016-08-27T12:27:41.425Z,255
2016-08-27T12:28:42.866Z,270
2016-08-27T12:29:41.485Z,270
2016-08-27T12:30:42.233Z,270
2016-08-27T12:31:42.266Z,265
2016-08-27T12:32:42.400Z,275
2016-08-27T12:33:42.309Z,270
2016-08-27T12:34:42.454Z,270
2016-08-27T12:35:43.062Z,270
2016-08-27T12:36:40.252Z,270
2016-08-27T12:37:43.139Z,270
2016-08-27T12:38:41.815Z,270
2016-08-27T12:39:43.185Z,270
2016-08-27T12:40:43.193Z,270
2016-08-27T12:41:42.548Z,270
2016-08-27T12:42:42.548Z,270
2016-08-27T12:43:41.926Z,270
2016-08-27T12:44:42.583Z,275
2016-08-27T12:45:42.704Z,280
2016-08-27T12:46:43.357Z,280
2016-08-27T12:47:43.442Z,275
2016-08-27T12:48:42.908Z,275
2016-08-27T12:49:43.621Z,270
2016-08-27T12:50:42.942Z,270
2016-08-27T12:51:42.938Z,270
2016-08-27T12:52:43.624Z,270
2016-08-27T12:53:42.853Z,270
2016-08-27T12:54:43.701Z,270
2016-08-27T12:55:42.310Z,270
2016-08-27T12:56:42.229Z,275
2016-08-27T12:57:42.965Z,275
2016-08-27T12:58:43.005Z,275
2016-08-27T12:59:43.029Z,270
2016-08-27T13:00:42.344Z,270
2016-08-27T13:01:43.333Z,270
2016-08-27T13:02:43.114Z,270
2016-08-27T13:03:42.636Z,270
2016-08-27T13:04:42.455Z,270
2016-08-27T13:05:43.186Z,270
2016-08-27T13:06:43.212Z,270
2016-08-27T13:07:44.072Z,275
2016-08-27T13:08:43.965Z,265
2016-08-27T13:09:43.298Z,265
2016-08-27T13:10:43.339Z,265
2016-08-27T13:11:41.225Z,270
2016-08-27T13:12:42.704Z,265
2016-08-27T13:13:43.385Z,265
2016-08-27T13:14:42.734Z,265
2016-08-27T13:15:43.453Z,270
2016-08-27T13:16:43.583Z,265
2016-08-27T13:17:42.828Z,260
2016-08-27T13:18:44.267Z,260
2016-08-27T13:19:42.963Z,255
2016-08-27T13:20:44.314Z,255
2016-08-27T13:21:44.329Z,260
2016-08-27T13:22:44.406Z,260
2016-08-27T13:23:44.423Z,265
2016-08-27T13:24:44.425Z,265
2016-08-27T13:25:43.887Z,255
2016-08-27T13:26:43.151Z,255
2016-08-27T13:27:44.512Z,255
2016-08-27T13:28:43.831Z,255
2016-08-27T13:29:42.569Z,260
2016-08-27T13:30:43.884Z,260
2016-08-27T13:31:43.401Z,265
2016-08-27T13:32:43.967Z,260
2016-08-27T13:33:43.956Z,265
2016-08-27T13:34:44.213Z,260
2016-08-27T13:35:43.300Z,260
2016-08-27T13:36:43.329Z,260
2016-08-27T13:37:44.073Z,265
2016-08-27T13:38:44.803Z,255
2016-08-27T13:39:43.440Z,250
2016-08-27T13:40:44.943Z,240
2016-08-27T13:41:43.474Z,240
2016-08-27T13:42:43.515Z,240
2016-08-27T13:43:43.531Z,235
2016-08-27T13:44:43.630Z,240
2016-08-27T13:45:44.334Z,255
2016-08-27T13:46:45.024Z,260
2016-08-27T13:47:45.081Z,270
2016-08-27T13:48:44.439Z,270
2016-08-27T13:49:43.705Z,270
2016-08-27T13:50:44.443Z,270
2016-08-27T13:51:44.455Z,270
2016-08-27T13:52:43.825Z,270
2016-08-27T13:53:43.102Z,270
2016-08-27T13:54:43.839Z,265
2016-08-27T13:55:43.203Z,265
2016-08-27T13:56:44.600Z,265
2016-08-27T13:57:44.849Z,255
2016-08-27T13:58:44.755Z,245
2016-08-27T13:59:45.494Z,250
2016-08-27T14:00:44.057Z,245
2016-08-27T14:01:45.544Z,240
2016-08-27T14:02:44.752Z,245
2016-08-27T14:03:44.143Z,250
2016-08-27T14:04:43.412Z,255
2016-08-27T14:05:44.853Z,260
2016-08-27T14:06:45.581Z,265